sensor_id;sensor_type;location;lat;lon;timestamp;pressure;altitude;pressure_sealevel;temperature;humidity
39309;BME280;26019;47.510;19.122;2023-07-29T00:04:17;99789.88;;;19.53;100.00
39309;BME280;26019;47.510;19.122;2023-07-29T00:14:20;99795.59;;;19.44;100.00
39309;BME280;26019;47.510;19.122;2023-07-29T00:24:22;99796.81;;;19.37;100.00
39309;BME280;26019;47.510;19.122;2023-07-29T00:34:24;99788.59;;;19.27;100.00
39309;BME280;26019;47.510;19.122;2023-07-29T00:44:28;99790.22;;;19.12;100.00
39309;BME280;26019;47.510;19.122;2023-07-29T00:54:29;99787.63;;;18.93;100.00
39309;BME280;26019;47.510;19.122;2023-07-29T01:04:32;99782.97;;;18.80;100.00
39309;BME280;26019;47.510;19.122;2023-07-29T01:14:40;99781.22;;;18.81;100.00
39309;BME280;26019;47.510;19.122;2023-07-29T01:24:42;99785.78;;;18.58;100.00
39309;BME280;26019;47.510;19.122;2023-07-29T01:34:53;99781.06;;;18.47;100.00
39309;BME280;26019;47.510;19.122;2023-07-29T01:44:58;99779.47;;;18.26;100.00
39309;BME280;26019;47.510;19.122;2023-07-29T01:55:01;99780.31;;;18.26;100.00
39309;BME280;26019;47.510;19.122;2023-07-29T02:05:03;99779.47;;;18.06;100.00
39309;BME280;26019;47.510;19.122;2023-07-29T02:15:05;99784.38;;;17.94;100.00
39309;BME280;26019;47.510;19.122;2023-07-29T02:25:11;99782.25;;;17.83;100.00
39309;BME280;26019;47.510;19.122;2023-07-29T02:35:12;99797.56;;;17.71;100.00
39309;BME280;26019;47.510;19.122;2023-07-29T02:45:14;99783.19;;;17.61;100.00
39309;BME280;26019;47.510;19.122;2023-07-29T02:55:18;99796.25;;;17.61;100.00
39309;BME280;26019;47.510;19.122;2023-07-29T03:05:22;99796.38;;;17.58;100.00
39309;BME280;26019;47.510;19.122;2023-07-29T03:15:29;99800.44;;;17.44;100.00
39309;BME280;26019;47.510;19.122;2023-07-29T03:25:32;99799.91;;;17.36;100.00
39309;BME280;26019;47.510;19.122;2023-07-29T03:35:34;99810.25;;;17.39;100.00
39309;BME280;26019;47.510;19.122;2023-07-29T03:45:36;99800.38;;;17.46;100.00
39309;BME280;26019;47.510;19.122;2023-07-29T03:55:38;99797.03;;;17.63;100.00
39309;BME280;26019;47.510;19.122;2023-07-29T04:05:39;99810.34;;;17.77;100.00
39309;BME280;26019;47.510;19.122;2023-07-29T04:15:41;99810.84;;;18.06;100.00
39309;BME280;26019;47.510;19.122;2023-07-29T04:25:44;99809.44;;;18.38;100.00
39309;BME280;26019;47.510;19.122;2023-07-29T04:35:47;99821.41;;;18.99;100.00
39309;BME280;26019;47.510;19.122;2023-07-29T04:45:48;99819.63;;;19.17;100.00
39309;BME280;26019;47.510;19.122;2023-07-29T04:55:51;99821.78;;;19.27;100.00
39309;BME280;26019;47.510;19.122;2023-07-29T05:05:53;99824.09;;;19.84;100.00
39309;BME280;26019;47.510;19.122;2023-07-29T05:15:57;99833.91;;;20.80;100.00
39309;BME280;26019;47.510;19.122;2023-07-29T05:25:59;99837.56;;;21.98;100.00
39309;BME280;26019;47.510;19.122;2023-07-29T05:36:00;99852.06;;;22.89;100.00
39309;BME280;26019;47.510;19.122;2023-07-29T05:46:08;99861.53;;;23.19;100.00
39309;BME280;26019;47.510;19.122;2023-07-29T05:56:12;99870.28;;;23.47;100.00
39309;BME280;26019;47.510;19.122;2023-07-29T06:06:14;99876.94;;;23.91;100.00
39309;BME280;26019;47.510;19.122;2023-07-29T06:16:16;99905.13;;;23.78;100.00
39309;BME280;26019;47.510;19.122;2023-07-29T06:26:21;99901.72;;;23.50;100.00
39309;BME280;26019;47.510;19.122;2023-07-29T06:36:22;99907.44;;;23.69;100.00
39309;BME280;26019;47.510;19.122;2023-07-29T06:46:24;99904.41;;;24.01;100.00
39309;BME280;26019;47.510;19.122;2023-07-29T06:56:26;99896.06;;;24.71;100.00
39309;BME280;26019;47.510;19.122;2023-07-29T07:06:29;99898.91;;;25.29;89.52
39309;BME280;26019;47.510;19.122;2023-07-29T07:16:31;99894.88;;;26.06;79.68
39309;BME280;26019;47.510;19.122;2023-07-29T07:26:34;99897.06;;;26.47;75.18
39309;BME280;26019;47.510;19.122;2023-07-29T07:36:36;99891.19;;;26.98;70.38
39309;BME280;26019;47.510;19.122;2023-07-29T07:46:39;99880.31;;;27.55;67.71
39309;BME280;26019;47.510;19.122;2023-07-29T07:56:43;99876.56;;;27.04;72.62
39309;BME280;26019;47.510;19.122;2023-07-29T08:06:44;99865.69;;;27.40;71.70
39309;BME280;26019;47.510;19.122;2023-07-29T08:16:47;99866.72;;;27.70;65.25
39309;BME280;26019;47.510;19.122;2023-07-29T08:26:49;99864.13;;;27.37;65.52
39309;BME280;26019;47.510;19.122;2023-07-29T08:36:51;99860.91;;;27.76;58.86
39309;BME280;26019;47.510;19.122;2023-07-29T08:46:52;99851.97;;;27.77;59.89
39309;BME280;26019;47.510;19.122;2023-07-29T08:56:55;99850.34;;;27.65;58.30
39309;BME280;26019;47.510;19.122;2023-07-29T09:06:58;99847.69;;;28.27;50.86
39309;BME280;26019;47.510;19.122;2023-07-29T09:17:00;99840.84;;;28.95;45.23
39309;BME280;26019;47.510;19.122;2023-07-29T09:27:02;99826.75;;;31.36;41.34
39309;BME280;26019;47.510;19.122;2023-07-29T09:37:05;99829.75;;;34.25;34.38
39309;BME280;26019;47.510;19.122;2023-07-29T09:47:08;99821.94;;;36.44;28.33
39309;BME280;26019;47.510;19.122;2023-07-29T09:57:16;99816.06;;;34.90;29.48
39309;BME280;26019;47.510;19.122;2023-07-29T10:07:19;99816.25;;;39.05;25.93
39309;BME280;26019;47.510;19.122;2023-07-29T10:17:22;99797.97;;;39.07;23.79
39309;BME280;26019;47.510;19.122;2023-07-29T10:27:26;99806.94;;;42.75;21.06
39309;BME280;26019;47.510;19.122;2023-07-29T10:37:37;99813.41;;;44.73;19.25
39309;BME280;26019;47.510;19.122;2023-07-29T10:47:39;99816.13;;;48.01;16.60
39309;BME280;26019;47.510;19.122;2023-07-29T10:57:45;99798.50;;;37.67;25.12
39309;BME280;26019;47.510;19.122;2023-07-29T11:07:48;99803.44;;;36.99;28.49
39309;BME280;26019;47.510;19.122;2023-07-29T11:17:53;99788.22;;;41.07;22.84
39309;BME280;26019;47.510;19.122;2023-07-29T11:27:57;99795.03;;;40.01;23.76
39309;BME280;26019;47.510;19.122;2023-07-29T11:37:59;99790.63;;;41.22;23.44
39309;BME280;26019;47.510;19.122;2023-07-29T11:48:01;99794.53;;;35.97;30.40
39309;BME280;26019;47.510;19.122;2023-07-29T11:58:04;99784.72;;;46.21;18.60
39309;BME280;26019;47.510;19.122;2023-07-29T12:08:07;99774.84;;;36.98;27.09
39309;BME280;26019;47.510;19.122;2023-07-29T12:18:09;99763.47;;;36.31;27.96
39309;BME280;26019;47.510;19.122;2023-07-29T12:28:11;99745.25;;;34.99;27.42
39309;BME280;26019;47.510;19.122;2023-07-29T12:38:21;99754.97;;;32.70;32.24
39309;BME280;26019;47.510;19.122;2023-07-29T12:48:22;99743.63;;;32.00;31.96
39309;BME280;26019;47.510;19.122;2023-07-29T12:58:24;99724.94;;;32.00;31.90
39309;BME280;26019;47.510;19.122;2023-07-29T13:08:26;99729.19;;;34.91;27.89
39309;BME280;26019;47.510;19.122;2023-07-29T13:18:30;99723.97;;;42.13;19.86
39309;BME280;26019;47.510;19.122;2023-07-29T13:28:31;99722.84;;;42.32;20.25
39309;BME280;26019;47.510;19.122;2023-07-29T13:38:33;99717.84;;;46.18;17.71
39309;BME280;26019;47.510;19.122;2023-07-29T13:48:35;99711.84;;;41.85;20.75
39309;BME280;26019;47.510;19.122;2023-07-29T13:58:37;99695.41;;;38.87;22.64
39309;BME280;26019;47.510;19.122;2023-07-29T14:08:39;99683.91;;;43.80;18.94
39309;BME280;26019;47.510;19.122;2023-07-29T14:18:43;99666.03;;;44.01;18.51
39309;BME280;26019;47.510;19.122;2023-07-29T14:28:45;99658.97;;;43.42;18.85
39309;BME280;26019;47.510;19.122;2023-07-29T14:38:47;99661.88;;;40.94;20.61
39309;BME280;26019;47.510;19.122;2023-07-29T14:48:48;99655.16;;;35.27;26.98
39309;BME280;26019;47.510;19.122;2023-07-29T14:58:52;99664.34;;;32.91;31.12
39309;BME280;26019;47.510;19.122;2023-07-29T15:08:54;99657.34;;;32.16;32.63
39309;BME280;26019;47.510;19.122;2023-07-29T15:18:56;99651.22;;;31.64;34.25
39309;BME280;26019;47.510;19.122;2023-07-29T15:28:59;99650.16;;;33.71;32.02
39309;BME280;26019;47.510;19.122;2023-07-29T15:39:03;99653.53;;;33.25;33.66
39309;BME280;26019;47.510;19.122;2023-07-29T15:49:05;99653.50;;;31.94;36.52
39309;BME280;26019;47.510;19.122;2023-07-29T15:59:07;99660.91;;;30.96;38.62
39309;BME280;26019;47.510;19.122;2023-07-29T16:09:09;99665.25;;;30.52;38.99
39309;BME280;26019;47.510;19.122;2023-07-29T16:19:11;99677.88;;;30.24;39.07
39309;BME280;26019;47.510;19.122;2023-07-29T16:29:13;99685.16;;;29.58;42.51
39309;BME280;26019;47.510;19.122;2023-07-29T16:39:15;99687.94;;;29.18;41.91
39309;BME280;26019;47.510;19.122;2023-07-29T16:49:16;99703.16;;;28.79;43.52
39309;BME280;26019;47.510;19.122;2023-07-29T16:59:23;99704.56;;;28.43;45.92
39309;BME280;26019;47.510;19.122;2023-07-29T17:09:24;99715.13;;;28.04;46.59
39309;BME280;26019;47.510;19.122;2023-07-29T17:19:28;99719.09;;;27.69;47.70
39309;BME280;26019;47.510;19.122;2023-07-29T17:29:31;99731.09;;;27.42;49.31
39309;BME280;26019;47.510;19.122;2023-07-29T17:39:33;99735.47;;;26.47;61.98
39309;BME280;26019;47.510;19.122;2023-07-29T17:49:36;99744.22;;;26.03;71.86
39309;BME280;26019;47.510;19.122;2023-07-29T17:59:38;99744.72;;;25.52;76.18
39309;BME280;26019;47.510;19.122;2023-07-29T18:09:40;99733.47;;;24.67;81.46
39309;BME280;26019;47.510;19.122;2023-07-29T18:19:42;99745.78;;;24.55;99.27
39309;BME280;26019;47.510;19.122;2023-07-29T18:29:46;99757.72;;;24.23;91.53
39309;BME280;26019;47.510;19.122;2023-07-29T18:39:50;99749.56;;;24.15;95.88
39309;BME280;26019;47.510;19.122;2023-07-29T18:49:52;99755.66;;;24.15;100.00
39309;BME280;26019;47.510;19.122;2023-07-29T18:59:54;99756.13;;;23.83;100.00
39309;BME280;26019;47.510;19.122;2023-07-29T19:09:59;99763.97;;;23.59;100.00
39309;BME280;26019;47.510;19.122;2023-07-29T19:20:02;99769.78;;;23.38;100.00
39309;BME280;26019;47.510;19.122;2023-07-29T19:30:06;99770.50;;;23.27;100.00
39309;BME280;26019;47.510;19.122;2023-07-29T19:40:09;99757.97;;;22.91;100.00
39309;BME280;26019;47.510;19.122;2023-07-29T19:50:13;99738.63;;;22.51;100.00
39309;BME280;26019;47.510;19.122;2023-07-29T20:00:16;99735.25;;;22.35;100.00
39309;BME280;26019;47.510;19.122;2023-07-29T20:10:18;99720.75;;;22.42;100.00
39309;BME280;26019;47.510;19.122;2023-07-29T20:20:21;99731.97;;;22.59;100.00
39309;BME280;26019;47.510;19.122;2023-07-29T20:30:25;99744.38;;;22.84;100.00
39309;BME280;26019;47.510;19.122;2023-07-29T20:40:31;99749.28;;;22.63;100.00
39309;BME280;26019;47.510;19.122;2023-07-29T20:50:37;99745.28;;;22.15;100.00
39309;BME280;26019;47.510;19.122;2023-07-29T21:00:42;99758.84;;;21.80;100.00
39309;BME280;26019;47.510;19.122;2023-07-29T21:10:52;99765.03;;;21.50;100.00
39309;BME280;26019;47.510;19.122;2023-07-29T21:20:55;99770.28;;;21.50;100.00
39309;BME280;26019;47.510;19.122;2023-07-29T21:30:57;99779.66;;;21.40;100.00
39309;BME280;26019;47.510;19.122;2023-07-29T21:40:59;99792.28;;;21.18;100.00
39309;BME280;26019;47.510;19.122;2023-07-29T21:51:02;99799.44;;;21.00;100.00
39309;BME280;26019;47.510;19.122;2023-07-29T22:01:03;99794.91;;;20.88;100.00
39309;BME280;26019;47.510;19.122;2023-07-29T22:11:07;99792.66;;;20.82;100.00
39309;BME280;26019;47.510;19.122;2023-07-29T22:21:10;99794.88;;;20.72;100.00
39309;BME280;26019;47.510;19.122;2023-07-29T22:31:17;99796.09;;;20.82;100.00
39309;BME280;26019;47.510;19.122;2023-07-29T22:41:19;99801.59;;;20.94;100.00
39309;BME280;26019;47.510;19.122;2023-07-29T22:51:21;99804.69;;;21.00;100.00
39309;BME280;26019;47.510;19.122;2023-07-29T23:01:23;99809.72;;;20.89;100.00
39309;BME280;26019;47.510;19.122;2023-07-29T23:11:25;99809.16;;;20.84;100.00
39309;BME280;26019;47.510;19.122;2023-07-29T23:21:26;99811.03;;;20.82;100.00
39309;BME280;26019;47.510;19.122;2023-07-29T23:31:28;99798.44;;;20.87;100.00
39309;BME280;26019;47.510;19.122;2023-07-29T23:41:30;99813.19;;;20.89;100.00
39309;BME280;26019;47.510;19.122;2023-07-29T23:51:35;99801.53;;;20.79;100.00
